Time;durP1;ratioP1;P1;durP2;ratioP2;P2;SDS_P1;SDS_P2;PMS_P1;PMS_P2;Temp;Humidity;BMP_temperature;BMP_pressure;BME280_temperature;BME280_humidity;BME280_pressure;Samples;Min_cycle;Max_cycle;Signal;HPM_P1;HPM_P2
2023/01/10 00:07:20;;;;;;;0.60;0.60;;;;;;;10.27;70.13;99218.06;18424780;32;20161;-58
2023/01/10 00:17:24;;;;;;;0.77;0.77;;;;;;;10.08;70.60;99210.59;18423429;32;20117;-58
2023/01/10 00:27:33;;;;;;;0.85;0.85;;;;;;;10.06;70.74;99209.78;18422788;32;20107;-58
2023/01/10 00:37:37;;;;;;;0.82;0.82;;;;;;;10.10;70.51;99205.34;18422219;32;20105;-58
2023/01/10 00:47:42;;;;;;;0.70;0.70;;;;;;;10.04;70.81;99205.47;18422233;32;20096;-58
2023/01/10 00:57:45;;;;;;;1.20;1.10;;;;;;;9.96;71.05;99190.00;18422787;31;20093;-58
2023/01/10 01:07:50;;;;;;;0.62;0.62;;;;;;;10.09;70.63;99201.91;18420947;32;20146;-58
2023/01/10 01:17:53;;;;;;;0.60;0.60;;;;;;;10.19;70.29;99207.78;18420769;32;20077;-58
2023/01/10 01:27:58;;;;;;;0.60;0.60;;;;;;;9.73;71.65;99193.87;18420581;32;20152;-58
2023/01/10 01:38:01;;;;;;;0.95;0.95;;;;;;;9.57;71.96;99198.50;18419797;32;20092;-58
2023/01/10 01:48:15;;;;;;;0.62;0.62;;;;;;;9.74;71.49;99185.16;18419622;32;20085;-58
2023/01/10 01:58:24;;;;;;;0.52;0.52;;;;;;;9.71;71.64;99190.44;18419264;31;20104;-58
2023/01/10 02:08:29;;;;;;;0.50;0.50;;;;;;;9.64;71.60;99183.63;18419350;32;20085;-58
2023/01/10 02:18:32;;;;;;;0.90;0.90;;;;;;;9.61;71.48;99194.09;18417514;32;20128;-58
2023/01/10 02:29:26;;;;;;;0.50;0.50;;;;;;;9.68;71.58;99200.94;18418962;32;20103;-58
2023/01/10 02:39:36;;;;;;;0.50;0.50;;;;;;;9.62;71.78;99211.44;18103046;32;20180;-59
2023/01/10 02:49:43;;;;;;;0.60;0.60;;;;;;;9.69;71.65;99219.12;18102806;32;20126;-58
2023/01/10 03:00:06;;;;;;;0.70;0.70;;;;;;;9.46;72.20;99211.69;18102657;32;20147;-58
2023/01/10 03:10:14;;;;;;;0.60;0.60;;;;;;;9.44;72.75;99203.94;18231942;32;20126;-58
2023/01/10 03:20:21;;;;;;;1.58;1.48;;;;;;;9.77;71.53;99226.81;18416319;32;20088;-58
2023/01/10 03:30:26;;;;;;;0.60;0.60;;;;;;;9.94;71.35;99230.84;18415700;32;20099;-58
2023/01/10 03:40:36;;;;;;;0.70;0.70;;;;;;;9.76;71.75;99243.31;18414953;32;20097;-58
2023/01/10 03:50:40;;;;;;;1.60;1.50;;;;;;;9.92;71.40;99250.88;18414595;32;20191;-58
2023/01/10 04:00:45;;;;;;;1.08;1.00;;;;;;;9.49;72.62;99235.12;18413551;31;20093;-58
2023/01/10 04:10:48;;;;;;;0.60;0.60;;;;;;;9.79;71.76;99250.25;18413803;32;20116;-58
2023/01/10 04:20:53;;;;;;;0.50;0.50;;;;;;;9.79;71.65;99258.06;18401612;32;20456;-60
2023/01/10 04:30:56;;;;;;;0.50;0.50;;;;;;;9.76;71.72;99256.34;18377943;32;20115;-58
2023/01/10 04:41:01;;;;;;;0.50;0.50;;;;;;;9.85;71.50;99265.78;18404002;32;20178;-58
2023/01/10 04:51:04;;;;;;;0.50;0.50;;;;;;;9.83;71.66;99251.91;18422217;32;20493;-57
2023/01/10 05:01:10;;;;;;;0.60;0.60;;;;;;;9.85;72.13;99263.19;18421761;32;20145;-57
2023/01/10 05:11:13;;;;;;;0.55;0.55;;;;;;;9.83;72.22;99286.66;18421522;32;20093;-58
2023/01/10 05:21:17;;;;;;;0.60;0.60;;;;;;;9.78;72.52;99298.03;18421096;32;20485;-58
2023/01/10 05:31:21;;;;;;;0.50;0.50;;;;;;;9.80;72.50;99317.13;18420633;32;20406;-58
2023/01/10 05:41:25;;;;;;;0.70;0.70;;;;;;;9.77;72.97;99330.22;18420113;32;20377;-58
2023/01/10 05:51:29;;;;;;;0.73;0.73;;;;;;;9.95;72.14;99350.75;18420166;32;20105;-58
2023/01/10 06:01:34;;;;;;;0.60;0.60;;;;;;;9.92;72.63;99350.81;18410301;32;20373;-58
2023/01/10 06:11:37;;;;;;;0.60;0.60;;;;;;;9.72;72.10;99343.31;18373730;32;20089;-58
2023/01/10 06:21:42;;;;;;;0.70;0.70;;;;;;;9.14;72.44;99366.72;18356845;32;20110;-58
2023/01/10 06:31:45;;;;;;;0.70;0.70;;;;;;;8.87;73.77;99387.88;18364048;32;20455;-58
2023/01/10 06:41:49;;;;;;;0.75;0.75;;;;;;;9.20;72.45;99415.25;18401787;32;20160;-58
2023/01/10 06:51:52;;;;;;;0.70;0.70;;;;;;;8.99;72.89;99428.47;18407079;32;20101;-57
2023/01/10 07:01:57;;;;;;;0.70;0.70;;;;;;;8.75;72.93;99440.03;18415220;32;20129;-58
2023/01/10 07:12:00;;;;;;;0.65;0.65;;;;;;;9.06;71.98;99457.06;18411348;32;20173;-58
2023/01/10 07:22:05;;;;;;;0.70;0.70;;;;;;;8.64;73.29;99481.78;18417581;32;20357;-58
2023/01/10 07:32:08;;;;;;;0.60;0.60;;;;;;;8.56;73.86;99509.59;18404183;32;20151;-58
2023/01/10 07:42:13;;;;;;;0.60;0.60;;;;;;;8.76;73.31;99511.16;18368142;32;20089;-57
2023/01/10 07:52:16;;;;;;;0.60;0.60;;;;;;;8.67;73.59;99541.59;18348483;32;20112;-57
2023/01/10 08:02:20;;;;;;;0.60;0.60;;;;;;;8.78;72.88;99553.63;18375120;31;20157;-57
2023/01/10 08:12:24;;;;;;;0.57;0.57;;;;;;;8.85;72.61;99584.78;18399290;32;20123;-58
2023/01/10 08:22:28;;;;;;;0.60;0.60;;;;;;;8.95;71.81;99608.12;18401948;32;20089;-58
2023/01/10 08:32:32;;;;;;;0.90;0.90;;;;;;;8.88;71.90;99631.62;18359625;32;20105;-57
2023/01/10 08:42:36;;;;;;;0.60;0.60;;;;;;;8.78;71.84;99671.63;18364720;32;20098;-58
2023/01/10 08:52:39;;;;;;;0.70;0.70;;;;;;;8.72;72.21;99687.25;18376464;32;20711;-58
2023/01/10 09:02:44;;;;;;;0.60;0.60;;;;;;;8.43;72.40;99704.72;18424521;32;20112;-58
2023/01/10 09:12:58;;;;;;;0.60;0.60;;;;;;;8.40;72.33;99724.69;18362696;32;20093;-58
2023/01/10 09:23:07;;;;;;;0.70;0.70;;;;;;;8.29;72.64;99768.94;18358498;32;20456;-58
2023/01/10 09:33:11;;;;;;;0.70;0.70;;;;;;;8.46;71.18;99795.75;18359424;32;20143;-57
2023/01/10 09:43:22;;;;;;;0.70;0.70;;;;;;;7.87;72.73;99821.00;18414710;32;20093;-57
2023/01/10 09:53:28;;;;;;;0.70;0.70;;;;;;;7.98;72.27;99839.19;18392109;32;20093;-57
2023/01/10 10:03:37;;;;;;;0.70;0.70;;;;;;;7.79;72.37;99847.00;18362174;31;20093;-58
2023/01/10 10:13:48;;;;;;;0.70;0.70;;;;;;;7.80;72.00;99842.63;18376058;32;20112;-58
2023/01/10 10:24:06;;;;;;;0.60;0.60;;;;;;;7.60;72.59;99856.47;18382561;32;20372;-57
2023/01/10 10:34:13;;;;;;;0.60;0.60;;;;;;;7.65;72.16;99849.56;18420745;32;20179;-59
2023/01/10 10:44:37;;;;;;;0.68;0.68;;;;;;;7.83;71.96;99856.50;18411091;32;20149;-60
2023/01/10 10:54:40;;;;;;;0.65;0.65;;;;;;;7.56;72.97;99883.34;18355066;32;20183;-59
2023/01/10 11:04:45;;;;;;;0.60;0.60;;;;;;;7.86;72.45;99902.41;18354647;32;20120;-60
2023/01/10 11:14:50;;;;;;;0.70;0.70;;;;;;;7.91;72.12;99911.94;18352469;32;20089;-60
2023/01/10 11:24:56;;;;;;;0.60;0.60;;;;;;;7.70;72.63;99936.16;18383438;32;20462;-60
2023/01/10 11:35:00;;;;;;;0.70;0.70;;;;;;;7.82;72.71;99943.13;18352693;32;20117;-60
2023/01/10 11:45:30;;;;;;;0.60;0.60;;;;;;;8.12;71.47;99966.56;18353461;32;20085;-60
2023/01/10 11:55:37;;;;;;;0.60;0.60;;;;;;;8.35;70.87;99983.91;18391157;32;20157;-59
2023/01/10 12:05:42;;;;;;;0.80;0.80;;;;;;;8.39;70.90;99980.44;18426218;32;20140;-59
2023/01/10 12:15:45;;;;;;;0.60;0.60;;;;;;;8.66;69.81;99994.31;18425285;32;20098;-59
2023/01/10 12:25:50;;;;;;;0.70;0.70;;;;;;;8.59;69.46;100002.16;18369198;32;20111;-59
2023/01/10 12:36:16;;;;;;;0.62;0.62;;;;;;;8.39;69.77;100011.62;18378230;32;20499;-59
2023/01/10 12:46:24;;;;;;;0.55;0.55;;;;;;;8.60;69.65;100021.22;18373215;32;20113;-59
2023/01/10 12:56:48;;;;;;;0.60;0.60;;;;;;;8.60;68.82;100035.09;18359975;31;20093;-59
2023/01/10 13:06:53;;;;;;;0.60;0.60;;;;;;;8.80;68.05;100054.19;18379989;32;20097;-59
2023/01/10 13:17:03;;;;;;;0.70;0.70;;;;;;;8.82;67.15;100074.13;18413628;32;20415;-60
2023/01/10 13:27:19;;;;;;;0.70;0.70;;;;;;;8.89;66.92;100075.00;18392891;32;20360;-60
2023/01/10 13:37:25;;;;;;;0.90;0.90;;;;;;;9.00;65.94;100080.19;18387245;32;20137;-60
2023/01/10 13:48:00;;;;;;;0.70;0.70;;;;;;;8.75;66.38;100108.81;18387685;32;20121;-60
2023/01/10 13:58:05;;;;;;;0.90;0.90;;;;;;;8.91;65.63;100127.91;18388538;31;20112;-60
2023/01/10 14:08:16;;;;;;;0.70;0.70;;;;;;;8.95;65.44;100144.41;18381180;32;20113;-59
2023/01/10 14:18:22;;;;;;;0.77;0.77;;;;;;;8.83;65.23;100155.72;18357525;32;20372;-60
2023/01/10 14:28:30;;;;;;;0.57;0.57;;;;;;;9.08;64.74;100179.13;18357860;32;20090;-60
2023/01/10 14:38:35;;;;;;;0.55;0.55;;;;;;;8.89;65.53;100186.94;18357374;32;20102;-59
2023/01/10 14:48:46;;;;;;;0.80;0.80;;;;;;;9.13;64.84;100186.06;18357178;32;20441;-59
2023/01/10 14:58:53;;;;;;;0.70;0.70;;;;;;;9.25;64.70;100213.87;18411610;31;20128;-59
2023/01/10 15:08:59;;;;;;;0.60;0.60;;;;;;;9.57;64.03;100231.22;18386549;32;20422;-57
2023/01/10 15:19:03;;;;;;;1.25;1.25;;;;;;;9.47;64.16;100237.31;18356732;32;20093;-57
2023/01/10 15:29:11;;;;;;;0.50;0.50;;;;;;;9.53;63.81;100250.34;18354899;32;20181;-57
2023/01/10 15:39:20;;;;;;;0.75;0.75;;;;;;;9.64;63.75;100272.91;18390966;31;20727;-57
2023/01/10 15:49:25;;;;;;;0.70;0.70;;;;;;;9.51;63.79;100295.50;18367703;32;20081;-58
2023/01/10 15:59:31;;;;;;;0.60;0.60;;;;;;;9.58;63.26;100311.16;18384706;32;20155;-57
2023/01/10 16:09:38;;;;;;;0.60;0.60;;;;;;;9.52;63.09;100325.91;18404092;32;20446;-58
2023/01/10 16:19:41;;;;;;;0.60;0.60;;;;;;;9.50;62.44;100338.94;18390631;32;20136;-57
2023/01/10 16:29:46;;;;;;;0.50;0.50;;;;;;;9.59;62.30;100340.69;18413272;32;20550;-58
2023/01/10 16:39:49;;;;;;;1.65;1.33;;;;;;;9.36;62.05;100351.06;18371316;32;20081;-58
2023/01/10 16:49:54;;;;;;;1.25;1.25;;;;;;;9.66;61.40;100362.41;18360574;32;20100;-58
2023/01/10 16:59:57;;;;;;;1.50;1.40;;;;;;;9.65;61.25;100374.59;18409063;31;20381;-58
2023/01/10 17:10:03;;;;;;;0.60;0.60;;;;;;;9.65;60.24;100392.84;18398530;32;20097;-58
2023/01/10 17:20:08;;;;;;;1.20;1.15;;;;;;;9.68;59.81;100410.22;18424169;32;20156;-58
2023/01/10 17:30:14;;;;;;;1.95;1.65;;;;;;;9.50;59.11;100417.13;18422549;32;20476;-58
2023/01/10 17:40:17;;;;;;;0.70;0.70;;;;;;;9.82;58.02;100421.53;18376144;32;20588;-58
2023/01/10 17:50:22;;;;;;;0.65;0.65;;;;;;;9.80;57.37;100435.41;18357938;31;20123;-58
2023/01/10 18:00:26;;;;;;;0.50;0.50;;;;;;;9.81;56.66;100448.47;18357873;31;20166;-58
2023/01/10 18:10:32;;;;;;;0.60;0.60;;;;;;;9.92;55.33;100471.06;18357596;32;20121;-58
2023/01/10 18:20:35;;;;;;;0.50;0.50;;;;;;;10.14;55.89;100472.81;18357063;32;20101;-58
2023/01/10 18:30:40;;;;;;;0.60;0.60;;;;;;;9.91;57.19;100483.25;18359462;32;20227;-58
2023/01/10 18:40:44;;;;;;;0.73;0.73;;;;;;;9.85;56.66;100486.69;18402604;32;20107;-58
2023/01/10 18:50:49;;;;;;;0.60;0.60;;;;;;;9.65;57.33;100488.37;18420206;32;20099;-59
2023/01/10 19:00:52;;;;;;;0.60;0.60;;;;;;;9.72;56.21;100497.97;18392118;31;20129;-58
2023/01/10 19:10:58;;;;;;;0.75;0.75;;;;;;;9.81;56.65;100505.81;18402067;32;20099;-58
2023/01/10 19:21:16;;;;;;;0.60;0.60;;;;;;;9.84;56.17;100502.34;18389504;32;20114;-58
2023/01/10 19:31:22;;;;;;;1.02;0.80;;;;;;;9.93;55.75;100507.59;18417222;32;20100;-58
2023/01/10 19:41:26;;;;;;;0.62;0.62;;;;;;;9.66;56.50;100506.66;18401414;32;20090;-59
2023/01/10 19:51:32;;;;;;;0.60;0.60;;;;;;;9.67;56.78;100524.03;18355352;32;20097;-58
2023/01/10 20:01:35;;;;;;;0.70;0.70;;;;;;;9.55;57.05;100535.28;18359913;31;115790;-58
2023/01/10 20:11:44;;;;;;;0.70;0.70;;;;;;;9.68;56.37;100541.41;18421643;32;20102;-58
2023/01/10 20:21:48;;;;;;;0.57;0.57;;;;;;;9.60;56.75;100557.91;18423522;32;20093;-59
2023/01/10 20:31:56;;;;;;;0.60;0.60;;;;;;;9.60;56.67;100561.34;18358994;32;20097;-58
2023/01/10 20:41:59;;;;;;;0.70;0.70;;;;;;;9.68;56.11;100570.06;18361887;32;20103;-58
2023/01/10 20:52:04;;;;;;;0.70;0.70;;;;;;;9.64;56.31;100583.09;18361300;32;20136;-58
2023/01/10 21:02:09;;;;;;;0.70;0.70;;;;;;;9.69;55.65;100590.06;18360042;31;20097;-57
2023/01/10 21:12:16;;;;;;;0.57;0.57;;;;;;;9.97;54.76;100611.03;18360072;32;20454;-58
2023/01/10 21:22:26;;;;;;;0.60;0.60;;;;;;;9.63;55.40;100604.81;18366927;32;20093;-58
2023/01/10 21:32:31;;;;;;;2.05;1.05;;;;;;;9.70;55.31;100601.38;18361947;31;20095;-58
2023/01/10 21:42:36;;;;;;;0.65;0.65;;;;;;;9.75;54.92;100596.19;18399169;32;20108;-58
2023/01/10 21:52:41;;;;;;;1.60;1.50;;;;;;;9.74;54.17;100597.06;18423376;32;20085;-58
2023/01/10 22:02:46;;;;;;;1.35;1.25;;;;;;;9.53;54.77;100580.41;18422523;32;20101;-58
2023/01/10 22:12:50;;;;;;;0.65;0.65;;;;;;;9.36;55.30;100585.56;18422217;32;20362;-58
2023/01/10 22:22:53;;;;;;;0.70;0.70;;;;;;;9.41;54.98;100576.03;18421912;32;20128;-58
2023/01/10 22:32:58;;;;;;;1.17;1.02;;;;;;;9.17;55.25;100580.22;18418873;32;20112;-58
2023/01/10 22:43:01;;;;;;;0.60;0.60;;;;;;;9.08;55.54;100588.88;18395671;32;20101;-58
2023/01/10 22:53:06;;;;;;;0.60;0.60;;;;;;;9.20;54.99;100589.81;18377235;32;20108;-58
2023/01/10 23:03:09;;;;;;;0.60;0.60;;;;;;;9.23;55.13;100585.50;18383152;32;20191;-58
2023/01/10 23:13:13;;;;;;;0.65;0.65;;;;;;;8.99;55.29;100587.03;18412978;32;20101;-58
2023/01/10 23:23:18;;;;;;;0.62;0.62;;;;;;;8.64;56.55;100603.28;18416810;32;20379;-58
2023/01/10 23:33:22;;;;;;;0.60;0.60;;;;;;;8.86;55.59;100604.31;18427069;31;20091;-58
2023/01/10 23:43:26;;;;;;;0.80;0.80;;;;;;;8.87;55.44;100602.59;18431076;31;20093;-58
2023/01/10 23:53:30;;;;;;;0.60;0.60;;;;;;;8.65;55.76;100599.81;18425069;32;20089;-58
